Ackworth, IA

2:54 PM CDT on August 29, 2016 (GMT -0500)
Rural Pleasantville | | Change Station
Active Advisory: Special Statement

Elev 843 ft 41.36 °N, 93.27 °W | Updated 48 seconds ago

Clear
Clear
79.0 °F
Feels Like 83 °F
N
0.0
Wind Variable Wind from SW

Today
High -- | Low -- °F
--% Chance of Precip.
Yesterday
High -- | Low -- °F
Precip. -- in
Pressure 30.16 in
Visibility 10.0 miles
Clouds Clear
Heat Index 83 °F
Dew Point 77 °F
Humidity 96%
Rainfall 0.32 in
Snow Depth Not available.
6:37 AM 7:50 PM
Waning Crescent, 7% visible
METAR KOXV 291935Z AUTO 15007G14KT 130V190 10SM CLR 27/22 A3016 RMK AO2
Pressure 30.16 in
Visibility 10.0 miles
Clouds Clear
Heat Index 83 °F
Dew Point 77 °F
Humidity 96%
Rainfall 0.32 in
Snow Depth Not available.
6:37 AM 7:50 PM
Waning Crescent, 7% visible
METAR KOXV 291935Z AUTO 15007G14KT 130V190 10SM CLR 27/22 A3016 RMK AO2

10-Day Weather Forecast

Almanac

Astronomy

Aug. 29, 2016 Rise Set
Actual Time
Civil Twilight
Nautical Twilight
Astronomical Twilight
Moon
Length of Visible Light
Length of Day
Tomorrow will be .
, % of the Moon is Illuminated

Today's Extremes

State Highs State Lows

Community

WunderPhotos

Upload Photos

1,935,642 photos uploaded!

WunderBlog® & News

Nearby

Air Quality

  Air Quality AQ Index Pollutant
Not available.

Snow Depth

Station Depth Elevation

Earthquake Activity

City Distance Mag. Time & Date
Minimum magnitude displayed is 2.5.

Coastal Water Temperatures

Place Temperature

Stations

Nearby Weather Stations

Station Location Temp. Windchill Dew Point Humidity Wind Precip. Elev Updated Type
                   

Watches & Warnings

Special Statement
Issued: 1:37 PM CDT Aug. 29, 2016 – National Weather Service

... Conditions are favorable for funnel clouds...

Current atmospheric conditions support the development of funnel
clouds across much of Iowa this afternoon. Usually... these funnel
clouds can form from showers and weak thunderstorms. These funnels
are normally brief... drop only a few hundred feet from the cloud
base... and rarely become a tornado or cause damage. However... if
one is spotted... please immediately report it to the National
Weather Service. If a Tornado Warning would become
necessary... take appropriate action.


Small